createdAt,value
2023-05-21T00:00:51.851Z,99.90
2023-05-21T00:05:54.890Z,99.90
2023-05-21T00:10:56.980Z,99.90
2023-05-21T00:15:59.124Z,99.90
2023-05-21T00:21:02.011Z,99.90
2023-05-21T00:26:04.186Z,99.90
2023-05-21T00:31:06.446Z,99.90
2023-05-21T00:36:09.092Z,99.90
2023-05-21T00:41:11.403Z,99.90
2023-05-21T00:46:18.024Z,99.90
2023-05-21T00:51:21.804Z,99.90
2023-05-21T00:56:27.368Z,99.90
2023-05-21T01:01:34.025Z,99.90
2023-05-21T01:06:36.120Z,99.90
2023-05-21T01:11:45.023Z,99.90
2023-05-21T01:16:49.871Z,99.90
2023-05-21T01:22:01.723Z,99.90
2023-05-21T01:27:06.779Z,99.90
2023-05-21T01:32:23.787Z,99.90
2023-05-21T01:37:48.683Z,99.90
2023-05-21T01:42:51.819Z,99.90
2023-05-21T01:47:55.889Z,99.90
2023-05-21T01:52:58.758Z,99.90
2023-05-21T01:58:02.441Z,99.90
2023-05-21T02:03:05.511Z,99.90
2023-05-21T02:08:10.423Z,99.90
2023-05-21T02:13:12.645Z,99.90
2023-05-21T02:18:18.670Z,99.90
2023-05-21T02:23:21.256Z,99.90
2023-05-21T02:28:24.073Z,99.90
2023-05-21T02:33:26.500Z,99.90
2023-05-21T02:38:28.560Z,99.90
2023-05-21T02:43:30.737Z,99.90
2023-05-21T02:48:32.927Z,99.90
2023-05-21T02:53:35.105Z,99.90
2023-05-21T02:58:37.719Z,99.90
2023-05-21T03:03:39.950Z,99.90
2023-05-21T03:08:42.164Z,99.90
2023-05-21T03:13:44.563Z,99.90
2023-05-21T03:18:47.607Z,99.90
2023-05-21T03:23:50.008Z,99.90
2023-05-21T03:28:52.460Z,99.90
2023-05-21T03:33:57.446Z,99.90
2023-05-21T03:39:04.635Z,99.90
2023-05-21T03:44:09.664Z,99.90
2023-05-21T03:49:22.393Z,99.90
2023-05-21T03:54:28.498Z,99.90
2023-05-21T03:59:35.519Z,99.90
2023-05-21T04:04:37.624Z,99.90
2023-05-21T04:09:42.170Z,99.90
2023-05-21T04:14:44.241Z,99.90
2023-05-21T04:19:46.819Z,99.90
2023-05-21T04:24:50.178Z,99.90
2023-05-21T04:29:55.534Z,99.90
2023-05-21T04:35:01.324Z,99.90
2023-05-21T04:40:04.084Z,99.90
2023-05-21T04:45:06.579Z,99.90
2023-05-21T04:50:12.183Z,99.90
2023-05-21T04:55:14.284Z,99.90
2023-05-21T05:00:16.710Z,99.90
2023-05-21T05:05:21.047Z,99.90
2023-05-21T05:10:23.161Z,99.90
2023-05-21T05:15:26.511Z,99.90
2023-05-21T05:20:28.859Z,99.90
2023-05-21T05:25:31.126Z,99.90
2023-05-21T05:30:35.886Z,99.90
2023-05-21T05:35:49.486Z,99.90
2023-05-21T05:40:52.021Z,99.90
2023-05-21T05:45:54.368Z,99.90
2023-05-21T05:50:57.355Z,99.90
2023-05-21T05:56:01.478Z,99.90
2023-05-21T06:01:06.286Z,99.90
2023-05-21T06:06:08.769Z,99.90
2023-05-21T06:11:11.618Z,99.90
2023-05-21T06:16:13.954Z,99.90
2023-05-21T06:21:16.130Z,99.90
2023-05-21T06:26:20.063Z,99.90
2023-05-21T06:31:28.306Z,99.90
2023-05-21T06:36:32.638Z,99.90
2023-05-21T06:41:35.163Z,99.90
2023-05-21T06:46:40.167Z,99.90
2023-05-21T06:51:44.137Z,99.90
2023-05-21T06:56:48.200Z,99.90
2023-05-21T07:01:51.417Z,99.90
2023-05-21T07:06:54.690Z,99.90
2023-05-21T07:11:58.654Z,99.90
2023-05-21T07:17:01.547Z,99.90
2023-05-21T07:22:05.019Z,99.90
2023-05-21T07:27:17.769Z,99.90
2023-05-21T07:32:29.348Z,99.90
2023-05-21T07:37:32.860Z,99.90
2023-05-21T07:42:35.247Z,99.90
2023-05-21T07:47:38.558Z,99.90
2023-05-21T07:52:41.343Z,99.90
2023-05-21T07:57:43.630Z,99.90
2023-05-21T08:02:48.301Z,99.90
2023-05-21T08:07:51.635Z,99.90
2023-05-21T08:12:55.613Z,99.90
2023-05-21T08:17:58.182Z,99.90
2023-05-21T08:23:01.410Z,99.90
2023-05-21T08:28:09.916Z,99.90
2023-05-21T08:33:16.063Z,99.90
2023-05-21T08:38:19.803Z,99.90
2023-05-21T08:43:53.514Z,99.90
2023-05-21T08:48:57.221Z,99.90
2023-05-21T08:54:03.038Z,99.90
2023-05-21T08:59:05.248Z,99.90
2023-05-21T09:04:20.207Z,99.90
2023-05-21T09:09:38.373Z,99.90
2023-05-21T09:14:42.782Z,99.90
2023-05-21T09:20:12.707Z,99.90
2023-05-21T09:25:25.146Z,99.90
2023-05-21T09:30:30.244Z,99.90
2023-05-21T09:35:36.289Z,99.90
2023-05-21T09:40:46.815Z,99.90
2023-05-21T09:45:58.941Z,99.90
2023-05-21T09:51:14.759Z,99.90
2023-05-21T09:56:19.429Z,99.90
2023-05-21T10:01:21.872Z,99.90
2023-05-21T10:06:28.897Z,99.90
2023-05-21T10:11:36.760Z,99.90
2023-05-21T10:16:39.544Z,99.90
2023-05-21T10:21:42.402Z,99.90
2023-05-21T10:26:46.131Z,99.90
2023-05-21T10:31:50.190Z,99.90
2023-05-21T10:36:54.451Z,99.90
2023-05-21T10:42:00.038Z,99.90
2023-05-21T10:47:26.050Z,99.90
2023-05-21T10:52:55.446Z,99.90
2023-05-21T10:58:29.900Z,99.90
2023-05-21T11:03:35.802Z,99.90
2023-05-21T11:08:48.157Z,99.90
2023-05-21T11:13:50.432Z,99.90
2023-05-21T11:18:55.132Z,99.90
2023-05-21T11:24:03.966Z,99.90
2023-05-21T11:29:06.376Z,97.00
2023-05-21T11:34:11.359Z,92.00
2023-05-21T11:39:24.084Z,85.70
2023-05-21T11:44:46.864Z,77.90
2023-05-21T11:49:49.659Z,68.30
2023-05-21T11:54:57.566Z,70.10
2023-05-21T12:00:01.963Z,64.70
2023-05-21T12:05:07.001Z,66.70
2023-05-21T12:10:09.574Z,63.60
2023-05-21T12:15:13.680Z,61.40
2023-05-21T12:20:16.737Z,63.30
2023-05-21T12:25:20.461Z,65.00
2023-05-21T12:30:22.703Z,65.10
2023-05-21T12:35:25.216Z,63.50
2023-05-21T12:40:39.697Z,62.10
2023-05-21T12:45:43.773Z,60.10
2023-05-21T12:50:45.985Z,63.60
2023-05-21T12:55:48.099Z,69.00
2023-05-21T13:00:50.267Z,69.70
2023-05-21T13:05:59.631Z,68.70
2023-05-21T13:11:05.222Z,68.30
2023-05-21T13:16:08.095Z,67.70
2023-05-21T13:21:10.336Z,67.20
2023-05-21T13:26:12.574Z,66.60
2023-05-21T13:31:15.880Z,69.80
2023-05-21T13:36:18.390Z,69.80
2023-05-21T13:41:21.498Z,70.50
2023-05-21T13:46:23.875Z,70.00
2023-05-21T13:56:34.061Z,65.90
2023-05-21T14:01:36.621Z,63.70
2023-05-21T14:06:38.900Z,63.20
2023-05-21T14:11:41.638Z,61.70
2023-05-21T14:16:43.743Z,60.00
2023-05-21T14:21:45.985Z,58.60
2023-05-21T14:26:48.170Z,60.50
2023-05-21T14:31:50.450Z,59.60
2023-05-21T14:36:52.639Z,58.20
2023-05-21T14:41:54.912Z,57.10
2023-05-21T14:46:59.527Z,55.80
2023-05-21T14:52:02.252Z,56.50
2023-05-21T14:57:04.538Z,56.10
2023-05-21T15:02:06.889Z,57.30
2023-05-21T15:07:09.105Z,57.90
2023-05-21T15:12:11.171Z,58.10
2023-05-21T15:17:13.324Z,59.00
2023-05-21T15:22:15.536Z,57.50
2023-05-21T15:27:17.829Z,56.00
2023-05-21T15:32:22.675Z,55.60
2023-05-21T15:37:24.866Z,54.90
2023-05-21T15:42:31.340Z,57.10
2023-05-21T15:47:33.893Z,58.00
2023-05-21T15:52:36.935Z,59.30
2023-05-21T15:57:39.141Z,60.10
2023-05-21T16:02:42.235Z,62.20
2023-05-21T16:07:44.731Z,64.70
2023-05-21T16:12:47.000Z,66.10
2023-05-21T16:17:49.190Z,65.20
2023-05-21T16:22:51.355Z,64.70
2023-05-21T16:27:53.498Z,65.00
2023-05-21T16:32:55.804Z,65.20
2023-05-21T16:37:58.299Z,66.70
2023-05-21T16:43:02.015Z,67.20
2023-05-21T16:48:05.078Z,68.00
2023-05-21T16:53:08.774Z,68.80
2023-05-21T16:58:11.162Z,71.80
2023-05-21T17:03:13.499Z,72.80
2023-05-21T17:08:15.915Z,75.20
2023-05-21T17:13:22.078Z,76.20
2023-05-21T17:18:25.108Z,77.90
2023-05-21T17:23:27.250Z,79.90
2023-05-21T17:28:29.590Z,80.00
2023-05-21T17:33:31.755Z,79.70
2023-05-21T17:38:34.000Z,78.00
2023-05-21T17:43:36.179Z,76.30
2023-05-21T17:48:38.381Z,74.60
2023-05-21T17:53:41.256Z,74.70
2023-05-21T17:58:43.466Z,76.60
2023-05-21T18:03:45.847Z,79.20
2023-05-21T18:08:47.987Z,82.00
2023-05-21T18:13:50.473Z,86.00
2023-05-21T18:18:52.647Z,91.00
2023-05-21T18:23:55.322Z,95.20
2023-05-21T18:28:58.370Z,99.90
2023-05-21T18:34:00.560Z,99.90
2023-05-21T18:39:02.710Z,99.90
2023-05-21T18:44:06.353Z,99.90
2023-05-21T18:49:08.682Z,99.90
2023-05-21T18:54:11.280Z,99.90
2023-05-21T18:59:13.558Z,99.90
2023-05-21T19:04:16.348Z,99.90
2023-05-21T19:09:18.612Z,99.90
2023-05-21T19:14:21.415Z,99.90
2023-05-21T19:19:23.658Z,99.90
2023-05-21T19:24:26.349Z,99.90
2023-05-21T19:29:28.928Z,99.90
2023-05-21T19:34:31.257Z,99.90
2023-05-21T19:39:40.733Z,99.90
2023-05-21T19:44:43.346Z,99.90
2023-05-21T19:49:45.848Z,99.90
2023-05-21T19:54:47.951Z,99.90
2023-05-21T19:59:50.027Z,99.90
2023-05-21T20:04:53.623Z,99.90
2023-05-21T20:09:55.834Z,99.90
2023-05-21T20:14:59.633Z,99.90
2023-05-21T20:20:03.815Z,99.90
2023-05-21T20:25:07.719Z,99.90
2023-05-21T20:30:10.222Z,99.90
2023-05-21T20:35:12.679Z,99.90
2023-05-21T20:40:15.141Z,99.90
2023-05-21T20:45:17.525Z,99.90
2023-05-21T20:50:21.797Z,99.90
2023-05-21T20:55:23.863Z,99.90
2023-05-21T21:00:26.780Z,99.90
2023-05-21T21:05:28.942Z,99.90
2023-05-21T21:10:31.197Z,99.90
2023-05-21T21:15:33.775Z,99.90
2023-05-21T21:20:35.957Z,99.90
2023-05-21T21:25:38.077Z,99.90
2023-05-21T21:30:41.343Z,99.90
2023-05-21T21:35:43.531Z,99.90
2023-05-21T21:40:45.790Z,99.90
2023-05-21T21:45:48.274Z,99.90
2023-05-21T21:50:50.457Z,99.90
2023-05-21T21:55:52.636Z,99.90
2023-05-21T22:00:54.781Z,99.90
2023-05-21T22:05:57.189Z,99.90
2023-05-21T22:10:59.272Z,99.90
2023-05-21T22:16:02.162Z,99.90
2023-05-21T22:21:09.738Z,99.90
2023-05-21T22:26:12.671Z,99.90
2023-05-21T22:31:14.825Z,99.90
2023-05-21T22:36:17.071Z,99.90
2023-05-21T22:41:19.849Z,99.90
2023-05-21T22:46:22.109Z,99.90
2023-05-21T22:51:24.267Z,99.90
2023-05-21T22:56:26.634Z,99.90
2023-05-21T23:01:29.270Z,99.90
2023-05-21T23:06:31.930Z,99.90
2023-05-21T23:11:34.051Z,99.90
2023-05-21T23:16:36.154Z,99.90
2023-05-21T23:21:39.519Z,99.90
2023-05-21T23:26:41.879Z,99.90
2023-05-21T23:31:44.034Z,99.90
2023-05-21T23:36:46.134Z,99.90
2023-05-21T23:41:48.517Z,99.90
2023-05-21T23:46:50.566Z,99.90
2023-05-21T23:51:52.656Z,99.90
2023-05-21T23:56:54.736Z,99.90
